sensor_id;sensor_type;location;lat;lon;timestamp;P1;durP1;ratioP1;P2;durP2;ratioP2
59786;SDS011;45672;51.612;5.536;2023-08-01T00:01:30;16.58;;;11.05;;
59786;SDS011;45672;51.612;5.536;2023-08-01T00:03:57;18.65;;;11.68;;
59786;SDS011;45672;51.612;5.536;2023-08-01T00:06:22;14.93;;;10.95;;
59786;SDS011;45672;51.612;5.536;2023-08-01T00:08:49;16.13;;;10.52;;
59786;SDS011;45672;51.612;5.536;2023-08-01T00:11:14;16.30;;;11.02;;
59786;SDS011;45672;51.612;5.536;2023-08-01T00:13:41;20.88;;;10.73;;
59786;SDS011;45672;51.612;5.536;2023-08-01T00:16:07;18.90;;;10.48;;
59786;SDS011;45672;51.612;5.536;2023-08-01T00:18:33;15.77;;;10.70;;
59786;SDS011;45672;51.612;5.536;2023-08-01T00:20:58;19.73;;;11.45;;
59786;SDS011;45672;51.612;5.536;2023-08-01T00:23:24;16.23;;;10.10;;
59786;SDS011;45672;51.612;5.536;2023-08-01T00:25:49;15.25;;;9.90;;
59786;SDS011;45672;51.612;5.536;2023-08-01T00:28:17;13.63;;;9.98;;
59786;SDS011;45672;51.612;5.536;2023-08-01T00:30:43;16.38;;;10.05;;
59786;SDS011;45672;51.612;5.536;2023-08-01T00:33:08;12.60;;;9.02;;
59786;SDS011;45672;51.612;5.536;2023-08-01T00:35:34;13.90;;;8.88;;
59786;SDS011;45672;51.612;5.536;2023-08-01T00:37:59;13.02;;;8.95;;
59786;SDS011;45672;51.612;5.536;2023-08-01T00:40:29;16.13;;;8.88;;
59786;SDS011;45672;51.612;5.536;2023-08-01T00:42:55;14.48;;;8.32;;
59786;SDS011;45672;51.612;5.536;2023-08-01T00:45:21;12.75;;;8.13;;
59786;SDS011;45672;51.612;5.536;2023-08-01T00:47:49;10.20;;;7.72;;
59786;SDS011;45672;51.612;5.536;2023-08-01T00:50:18;16.42;;;7.65;;
59786;SDS011;45672;51.612;5.536;2023-08-01T00:52:47;8.95;;;7.05;;
59786;SDS011;45672;51.612;5.536;2023-08-01T00:55:15;12.43;;;7.30;;
59786;SDS011;45672;51.612;5.536;2023-08-01T00:57:41;11.68;;;7.75;;
59786;SDS011;45672;51.612;5.536;2023-08-01T01:00:07;10.52;;;7.35;;
59786;SDS011;45672;51.612;5.536;2023-08-01T01:02:33;12.70;;;7.35;;
59786;SDS011;45672;51.612;5.536;2023-08-01T01:04:59;13.68;;;6.88;;
59786;SDS011;45672;51.612;5.536;2023-08-01T01:07:25;8.05;;;6.70;;
59786;SDS011;45672;51.612;5.536;2023-08-01T01:09:51;9.13;;;6.72;;
59786;SDS011;45672;51.612;5.536;2023-08-01T01:12:16;12.68;;;6.80;;
59786;SDS011;45672;51.612;5.536;2023-08-01T01:14:41;10.90;;;6.75;;
59786;SDS011;45672;51.612;5.536;2023-08-01T01:17:07;11.48;;;6.30;;
59786;SDS011;45672;51.612;5.536;2023-08-01T01:19:32;12.68;;;6.60;;
59786;SDS011;45672;51.612;5.536;2023-08-01T01:21:58;9.82;;;5.85;;
59786;SDS011;45672;51.612;5.536;2023-08-01T01:24:23;14.20;;;6.65;;
59786;SDS011;45672;51.612;5.536;2023-08-01T01:26:51;10.25;;;6.78;;
59786;SDS011;45672;51.612;5.536;2023-08-01T01:29:17;8.25;;;6.50;;
59786;SDS011;45672;51.612;5.536;2023-08-01T01:31:44;8.75;;;6.47;;
59786;SDS011;45672;51.612;5.536;2023-08-01T01:34:11;10.63;;;6.70;;
59786;SDS011;45672;51.612;5.536;2023-08-01T01:36:36;12.70;;;6.20;;
59786;SDS011;45672;51.612;5.536;2023-08-01T01:39:01;12.77;;;6.60;;
59786;SDS011;45672;51.612;5.536;2023-08-01T01:41:27;11.20;;;6.45;;
59786;SDS011;45672;51.612;5.536;2023-08-01T01:43:52;8.63;;;6.40;;
59786;SDS011;45672;51.612;5.536;2023-08-01T01:46:17;12.50;;;6.78;;
59786;SDS011;45672;51.612;5.536;2023-08-01T01:48:43;14.57;;;7.70;;
59786;SDS011;45672;51.612;5.536;2023-08-01T01:51:08;10.65;;;6.97;;
59786;SDS011;45672;51.612;5.536;2023-08-01T01:53:34;11.80;;;7.30;;
59786;SDS011;45672;51.612;5.536;2023-08-01T01:55:59;14.93;;;7.30;;
59786;SDS011;45672;51.612;5.536;2023-08-01T01:58:24;17.08;;;7.35;;
59786;SDS011;45672;51.612;5.536;2023-08-01T02:00:50;16.75;;;7.55;;
59786;SDS011;45672;51.612;5.536;2023-08-01T02:03:15;11.27;;;7.80;;
59786;SDS011;45672;51.612;5.536;2023-08-01T02:05:40;14.45;;;7.50;;
59786;SDS011;45672;51.612;5.536;2023-08-01T02:08:06;16.08;;;7.75;;
59786;SDS011;45672;51.612;5.536;2023-08-01T02:10:32;11.77;;;7.97;;
59786;SDS011;45672;51.612;5.536;2023-08-01T02:12:57;18.95;;;8.30;;
59786;SDS011;45672;51.612;5.536;2023-08-01T02:15:23;14.55;;;7.82;;
59786;SDS011;45672;51.612;5.536;2023-08-01T02:17:48;16.58;;;8.23;;
59786;SDS011;45672;51.612;5.536;2023-08-01T02:20:14;20.30;;;8.13;;
59786;SDS011;45672;51.612;5.536;2023-08-01T02:22:39;13.35;;;8.02;;
59786;SDS011;45672;51.612;5.536;2023-08-01T02:25:04;15.48;;;8.00;;
59786;SDS011;45672;51.612;5.536;2023-08-01T02:27:30;20.08;;;8.68;;
59786;SDS011;45672;51.612;5.536;2023-08-01T02:29:55;17.15;;;9.55;;
59786;SDS011;45672;51.612;5.536;2023-08-01T02:32:21;16.00;;;8.10;;
59786;SDS011;45672;51.612;5.536;2023-08-01T02:34:46;22.02;;;9.25;;
59786;SDS011;45672;51.612;5.536;2023-08-01T02:37:12;17.30;;;8.90;;
59786;SDS011;45672;51.612;5.536;2023-08-01T02:39:38;17.85;;;8.48;;
59786;SDS011;45672;51.612;5.536;2023-08-01T02:42:03;20.30;;;8.77;;
59786;SDS011;45672;51.612;5.536;2023-08-01T02:44:29;18.75;;;8.68;;
59786;SDS011;45672;51.612;5.536;2023-08-01T02:46:54;14.30;;;9.00;;
59786;SDS011;45672;51.612;5.536;2023-08-01T02:49:19;12.65;;;8.82;;
59786;SDS011;45672;51.612;5.536;2023-08-01T02:51:45;17.60;;;10.27;;
59786;SDS011;45672;51.612;5.536;2023-08-01T02:54:10;19.63;;;10.20;;
59786;SDS011;45672;51.612;5.536;2023-08-01T02:56:35;17.17;;;9.07;;
59786;SDS011;45672;51.612;5.536;2023-08-01T02:59:06;29.08;;;9.93;;
59786;SDS011;45672;51.612;5.536;2023-08-01T03:01:34;20.25;;;10.38;;
59786;SDS011;45672;51.612;5.536;2023-08-01T03:04:02;20.60;;;9.98;;
59786;SDS011;45672;51.612;5.536;2023-08-01T03:06:27;20.02;;;10.20;;
59786;SDS011;45672;51.612;5.536;2023-08-01T03:08:53;18.77;;;10.93;;
59786;SDS011;45672;51.612;5.536;2023-08-01T03:11:18;20.80;;;10.00;;
59786;SDS011;45672;51.612;5.536;2023-08-01T03:13:43;21.23;;;10.65;;
59786;SDS011;45672;51.612;5.536;2023-08-01T03:16:09;19.60;;;12.27;;
59786;SDS011;45672;51.612;5.536;2023-08-01T03:18:35;23.50;;;12.25;;
59786;SDS011;45672;51.612;5.536;2023-08-01T03:21:00;21.58;;;13.15;;
59786;SDS011;45672;51.612;5.536;2023-08-01T03:23:25;27.20;;;13.77;;
59786;SDS011;45672;51.612;5.536;2023-08-01T03:25:51;27.10;;;13.30;;
59786;SDS011;45672;51.612;5.536;2023-08-01T03:28:16;23.73;;;13.77;;
59786;SDS011;45672;51.612;5.536;2023-08-01T03:30:41;20.50;;;13.45;;
59786;SDS011;45672;51.612;5.536;2023-08-01T03:33:07;26.13;;;14.60;;
59786;SDS011;45672;51.612;5.536;2023-08-01T03:35:32;26.85;;;14.23;;
59786;SDS011;45672;51.612;5.536;2023-08-01T03:37:57;23.08;;;15.20;;
59786;SDS011;45672;51.612;5.536;2023-08-01T03:40:23;27.58;;;15.07;;
59786;SDS011;45672;51.612;5.536;2023-08-01T03:42:48;28.73;;;14.55;;
59786;SDS011;45672;51.612;5.536;2023-08-01T03:45:14;28.50;;;15.25;;
59786;SDS011;45672;51.612;5.536;2023-08-01T03:47:39;28.52;;;15.98;;
59786;SDS011;45672;51.612;5.536;2023-08-01T03:50:04;25.85;;;15.30;;
59786;SDS011;45672;51.612;5.536;2023-08-01T03:52:30;26.67;;;15.02;;
59786;SDS011;45672;51.612;5.536;2023-08-01T03:54:55;29.83;;;15.77;;
59786;SDS011;45672;51.612;5.536;2023-08-01T03:57:21;28.13;;;16.60;;
59786;SDS011;45672;51.612;5.536;2023-08-01T03:59:47;30.35;;;16.27;;
59786;SDS011;45672;51.612;5.536;2023-08-01T04:02:12;30.98;;;17.50;;
59786;SDS011;45672;51.612;5.536;2023-08-01T04:04:37;28.70;;;16.65;;
59786;SDS011;45672;51.612;5.536;2023-08-01T04:07:03;32.25;;;17.88;;
59786;SDS011;45672;51.612;5.536;2023-08-01T04:09:29;32.85;;;17.38;;
59786;SDS011;45672;51.612;5.536;2023-08-01T04:11:54;31.83;;;18.30;;
59786;SDS011;45672;51.612;5.536;2023-08-01T04:14:20;36.03;;;17.77;;
59786;SDS011;45672;51.612;5.536;2023-08-01T04:16:45;32.78;;;18.45;;
59786;SDS011;45672;51.612;5.536;2023-08-01T04:19:11;34.70;;;17.98;;
59786;SDS011;45672;51.612;5.536;2023-08-01T04:21:36;33.63;;;17.50;;
59786;SDS011;45672;51.612;5.536;2023-08-01T04:24:01;29.67;;;17.67;;
59786;SDS011;45672;51.612;5.536;2023-08-01T04:26:27;31.10;;;17.65;;
59786;SDS011;45672;51.612;5.536;2023-08-01T04:28:52;29.63;;;17.48;;
59786;SDS011;45672;51.612;5.536;2023-08-01T04:31:17;30.13;;;16.55;;
59786;SDS011;45672;51.612;5.536;2023-08-01T04:33:43;31.00;;;17.67;;
59786;SDS011;45672;51.612;5.536;2023-08-01T04:36:08;27.38;;;16.85;;
59786;SDS011;45672;51.612;5.536;2023-08-01T04:38:33;29.25;;;17.63;;
59786;SDS011;45672;51.612;5.536;2023-08-01T04:40:59;29.95;;;16.58;;
59786;SDS011;45672;51.612;5.536;2023-08-01T04:43:25;28.50;;;16.63;;
59786;SDS011;45672;51.612;5.536;2023-08-01T04:45:50;24.33;;;15.80;;
59786;SDS011;45672;51.612;5.536;2023-08-01T04:48:15;30.42;;;16.55;;
59786;SDS011;45672;51.612;5.536;2023-08-01T04:50:41;32.30;;;16.50;;
59786;SDS011;45672;51.612;5.536;2023-08-01T04:53:06;32.63;;;16.73;;
59786;SDS011;45672;51.612;5.536;2023-08-01T04:55:32;35.33;;;16.80;;
59786;SDS011;45672;51.612;5.536;2023-08-01T04:57:57;29.58;;;16.73;;
59786;SDS011;45672;51.612;5.536;2023-08-01T05:00:23;28.13;;;17.08;;
59786;SDS011;45672;51.612;5.536;2023-08-01T05:02:48;27.85;;;17.48;;
59786;SDS011;45672;51.612;5.536;2023-08-01T05:05:13;31.40;;;17.73;;
59786;SDS011;45672;51.612;5.536;2023-08-01T05:07:40;28.48;;;17.40;;
59786;SDS011;45672;51.612;5.536;2023-08-01T05:10:06;27.77;;;16.92;;
59786;SDS011;45672;51.612;5.536;2023-08-01T05:12:31;29.38;;;16.48;;
59786;SDS011;45672;51.612;5.536;2023-08-01T05:14:57;27.58;;;15.48;;
59786;SDS011;45672;51.612;5.536;2023-08-01T05:17:22;27.95;;;15.40;;
59786;SDS011;45672;51.612;5.536;2023-08-01T05:19:48;27.90;;;15.95;;
59786;SDS011;45672;51.612;5.536;2023-08-01T05:22:13;26.83;;;16.58;;
59786;SDS011;45672;51.612;5.536;2023-08-01T05:24:38;30.23;;;15.82;;
59786;SDS011;45672;51.612;5.536;2023-08-01T05:27:04;26.35;;;15.77;;
59786;SDS011;45672;51.612;5.536;2023-08-01T05:29:29;29.70;;;15.98;;
59786;SDS011;45672;51.612;5.536;2023-08-01T05:31:55;28.17;;;15.73;;
59786;SDS011;45672;51.612;5.536;2023-08-01T05:34:20;25.67;;;15.93;;
59786;SDS011;45672;51.612;5.536;2023-08-01T05:36:45;22.92;;;14.38;;
59786;SDS011;45672;51.612;5.536;2023-08-01T05:39:11;32.00;;;14.52;;
59786;SDS011;45672;51.612;5.536;2023-08-01T05:41:36;22.23;;;13.75;;
59786;SDS011;45672;51.612;5.536;2023-08-01T05:44:02;20.70;;;12.82;;
59786;SDS011;45672;51.612;5.536;2023-08-01T05:46:27;19.23;;;12.20;;
59786;SDS011;45672;51.612;5.536;2023-08-01T05:48:52;19.70;;;11.00;;
59786;SDS011;45672;51.612;5.536;2023-08-01T05:51:18;18.02;;;10.77;;
59786;SDS011;45672;51.612;5.536;2023-08-01T05:53:43;18.70;;;11.77;;
59786;SDS011;45672;51.612;5.536;2023-08-01T05:56:08;21.08;;;12.60;;
59786;SDS011;45672;51.612;5.536;2023-08-01T05:58:34;23.23;;;12.57;;
59786;SDS011;45672;51.612;5.536;2023-08-01T06:00:59;22.63;;;12.82;;
59786;SDS011;45672;51.612;5.536;2023-08-01T06:03:24;23.23;;;12.05;;
59786;SDS011;45672;51.612;5.536;2023-08-01T06:05:50;20.80;;;12.20;;
59786;SDS011;45672;51.612;5.536;2023-08-01T06:08:15;22.60;;;12.63;;
59786;SDS011;45672;51.612;5.536;2023-08-01T06:10:41;22.58;;;11.45;;
59786;SDS011;45672;51.612;5.536;2023-08-01T06:13:07;22.02;;;10.88;;
59786;SDS011;45672;51.612;5.536;2023-08-01T06:15:32;20.88;;;11.27;;
59786;SDS011;45672;51.612;5.536;2023-08-01T06:17:58;19.48;;;10.63;;
59786;SDS011;45672;51.612;5.536;2023-08-01T06:20:23;20.33;;;10.45;;
59786;SDS011;45672;51.612;5.536;2023-08-01T06:22:48;22.85;;;10.52;;
59786;SDS011;45672;51.612;5.536;2023-08-01T06:25:14;19.23;;;10.05;;
59786;SDS011;45672;51.612;5.536;2023-08-01T06:27:39;24.05;;;10.20;;
59786;SDS011;45672;51.612;5.536;2023-08-01T06:30:04;18.30;;;9.80;;
59786;SDS011;45672;51.612;5.536;2023-08-01T06:32:31;21.73;;;9.90;;
59786;SDS011;45672;51.612;5.536;2023-08-01T06:34:56;15.98;;;9.15;;
59786;SDS011;45672;51.612;5.536;2023-08-01T06:37:21;17.95;;;9.07;;
59786;SDS011;45672;51.612;5.536;2023-08-01T06:39:47;19.65;;;9.00;;
59786;SDS011;45672;51.612;5.536;2023-08-01T06:42:12;17.02;;;8.15;;
59786;SDS011;45672;51.612;5.536;2023-08-01T06:44:37;15.68;;;8.57;;
59786;SDS011;45672;51.612;5.536;2023-08-01T06:47:03;14.60;;;7.85;;
59786;SDS011;45672;51.612;5.536;2023-08-01T06:49:28;11.52;;;7.10;;
59786;SDS011;45672;51.612;5.536;2023-08-01T06:51:54;15.77;;;6.97;;
59786;SDS011;45672;51.612;5.536;2023-08-01T06:54:19;9.68;;;6.13;;
59786;SDS011;45672;51.612;5.536;2023-08-01T06:56:44;10.77;;;6.32;;
59786;SDS011;45672;51.612;5.536;2023-08-01T06:59:13;12.13;;;6.00;;
59786;SDS011;45672;51.612;5.536;2023-08-01T07:01:39;10.57;;;6.15;;
59786;SDS011;45672;51.612;5.536;2023-08-01T07:04:05;12.73;;;6.72;;
59786;SDS011;45672;51.612;5.536;2023-08-01T07:06:31;15.35;;;6.05;;
59786;SDS011;45672;51.612;5.536;2023-08-01T07:08:56;10.20;;;5.55;;
59786;SDS011;45672;51.612;5.536;2023-08-01T07:11:22;11.40;;;5.47;;
59786;SDS011;45672;51.612;5.536;2023-08-01T07:13:48;6.95;;;5.30;;
59786;SDS011;45672;51.612;5.536;2023-08-01T07:16:13;10.88;;;5.55;;
59786;SDS011;45672;51.612;5.536;2023-08-01T07:18:39;9.55;;;5.25;;
59786;SDS011;45672;51.612;5.536;2023-08-01T07:21:05;8.68;;;4.57;;
59786;SDS011;45672;51.612;5.536;2023-08-01T07:23:30;11.15;;;5.40;;
59786;SDS011;45672;51.612;5.536;2023-08-01T07:25:56;6.47;;;3.88;;
59786;SDS011;45672;51.612;5.536;2023-08-01T07:28:22;13.93;;;4.85;;
59786;SDS011;45672;51.612;5.536;2023-08-01T07:30:47;9.55;;;4.60;;
59786;SDS011;45672;51.612;5.536;2023-08-01T07:33:13;10.02;;;4.68;;
59786;SDS011;45672;51.612;5.536;2023-08-01T07:35:38;13.20;;;5.32;;
59786;SDS011;45672;51.612;5.536;2023-08-01T07:38:03;8.20;;;4.75;;
59786;SDS011;45672;51.612;5.536;2023-08-01T07:40:29;12.73;;;5.10;;
59786;SDS011;45672;51.612;5.536;2023-08-01T07:42:54;9.27;;;5.18;;
59786;SDS011;45672;51.612;5.536;2023-08-01T07:45:19;11.23;;;4.90;;
59786;SDS011;45672;51.612;5.536;2023-08-01T07:47:45;12.60;;;4.60;;
59786;SDS011;45672;51.612;5.536;2023-08-01T07:50:10;12.77;;;4.80;;
59786;SDS011;45672;51.612;5.536;2023-08-01T07:52:35;10.18;;;4.05;;
59786;SDS011;45672;51.612;5.536;2023-08-01T07:55:01;11.23;;;4.28;;
59786;SDS011;45672;51.612;5.536;2023-08-01T07:57:26;11.63;;;4.72;;
59786;SDS011;45672;51.612;5.536;2023-08-01T07:59:52;6.95;;;4.07;;
59786;SDS011;45672;51.612;5.536;2023-08-01T08:02:17;8.05;;;4.32;;
59786;SDS011;45672;51.612;5.536;2023-08-01T08:04:43;13.57;;;4.22;;
59786;SDS011;45672;51.612;5.536;2023-08-01T08:07:08;14.13;;;4.82;;
59786;SDS011;45672;51.612;5.536;2023-08-01T08:09:33;7.55;;;3.80;;
59786;SDS011;45672;51.612;5.536;2023-08-01T08:11:59;8.13;;;4.00;;
59786;SDS011;45672;51.612;5.536;2023-08-01T08:14:24;6.72;;;3.67;;
59786;SDS011;45672;51.612;5.536;2023-08-01T08:16:50;5.95;;;3.60;;
59786;SDS011;45672;51.612;5.536;2023-08-01T08:19:15;7.35;;;3.55;;
59786;SDS011;45672;51.612;5.536;2023-08-01T08:21:41;8.57;;;3.17;;
59786;SDS011;45672;51.612;5.536;2023-08-01T08:24:06;9.63;;;3.33;;
59786;SDS011;45672;51.612;5.536;2023-08-01T08:26:31;7.35;;;2.80;;
59786;SDS011;45672;51.612;5.536;2023-08-01T08:28:59;7.88;;;3.30;;
59786;SDS011;45672;51.612;5.536;2023-08-01T08:31:24;6.50;;;3.10;;
59786;SDS011;45672;51.612;5.536;2023-08-01T08:33:50;8.45;;;3.25;;
59786;SDS011;45672;51.612;5.536;2023-08-01T08:36:15;6.45;;;3.05;;
59786;SDS011;45672;51.612;5.536;2023-08-01T08:38:40;10.68;;;3.20;;
59786;SDS011;45672;51.612;5.536;2023-08-01T08:41:08;9.07;;;3.38;;
59786;SDS011;45672;51.612;5.536;2023-08-01T08:43:34;5.22;;;2.60;;
59786;SDS011;45672;51.612;5.536;2023-08-01T08:46:01;8.02;;;3.40;;
59786;SDS011;45672;51.612;5.536;2023-08-01T08:48:28;6.80;;;2.97;;
59786;SDS011;45672;51.612;5.536;2023-08-01T08:50:54;5.85;;;3.35;;
59786;SDS011;45672;51.612;5.536;2023-08-01T08:53:22;8.40;;;3.15;;
59786;SDS011;45672;51.612;5.536;2023-08-01T08:55:48;7.00;;;3.20;;
59786;SDS011;45672;51.612;5.536;2023-08-01T08:58:13;7.28;;;3.10;;
59786;SDS011;45672;51.612;5.536;2023-08-01T09:00:41;4.88;;;2.60;;
59786;SDS011;45672;51.612;5.536;2023-08-01T09:03:06;6.10;;;2.75;;
59786;SDS011;45672;51.612;5.536;2023-08-01T09:05:37;4.53;;;2.45;;
59786;SDS011;45672;51.612;5.536;2023-08-01T09:08:15;3.47;;;2.08;;
59786;SDS011;45672;51.612;5.536;2023-08-01T09:10:43;3.40;;;2.13;;
59786;SDS011;45672;51.612;5.536;2023-08-01T09:13:08;3.25;;;2.40;;
59786;SDS011;45672;51.612;5.536;2023-08-01T09:15:34;6.20;;;2.40;;
59786;SDS011;45672;51.612;5.536;2023-08-01T09:18:05;2.72;;;2.03;;
59786;SDS011;45672;51.612;5.536;2023-08-01T09:20:39;5.97;;;2.05;;
59786;SDS011;45672;51.612;5.536;2023-08-01T09:23:07;5.13;;;2.47;;
59786;SDS011;45672;51.612;5.536;2023-08-01T09:25:33;4.88;;;2.40;;
59786;SDS011;45672;51.612;5.536;2023-08-01T09:28:00;6.05;;;2.55;;
59786;SDS011;45672;51.612;5.536;2023-08-01T09:30:26;7.72;;;2.60;;
59786;SDS011;45672;51.612;5.536;2023-08-01T09:32:53;8.60;;;2.55;;
59786;SDS011;45672;51.612;5.536;2023-08-01T09:35:19;5.25;;;2.50;;
59786;SDS011;45672;51.612;5.536;2023-08-01T09:37:46;8.85;;;2.70;;
59786;SDS011;45672;51.612;5.536;2023-08-01T09:40:13;7.38;;;2.47;;
59786;SDS011;45672;51.612;5.536;2023-08-01T09:42:39;6.65;;;2.45;;
59786;SDS011;45672;51.612;5.536;2023-08-01T09:45:17;8.85;;;3.60;;
59786;SDS011;45672;51.612;5.536;2023-08-01T09:47:44;9.75;;;2.70;;
59786;SDS011;45672;51.612;5.536;2023-08-01T09:50:10;7.15;;;3.03;;
59786;SDS011;45672;51.612;5.536;2023-08-01T09:52:38;5.13;;;2.70;;
59786;SDS011;45672;51.612;5.536;2023-08-01T09:55:04;4.57;;;2.45;;
59786;SDS011;45672;51.612;5.536;2023-08-01T09:57:30;6.07;;;2.72;;
59786;SDS011;45672;51.612;5.536;2023-08-01T09:59:56;10.38;;;3.17;;
59786;SDS011;45672;51.612;5.536;2023-08-01T10:02:24;6.45;;;2.83;;
59786;SDS011;45672;51.612;5.536;2023-08-01T10:04:51;6.95;;;2.80;;
59786;SDS011;45672;51.612;5.536;2023-08-01T10:07:20;5.95;;;2.80;;
59786;SDS011;45672;51.612;5.536;2023-08-01T10:09:48;7.57;;;2.50;;
59786;SDS011;45672;51.612;5.536;2023-08-01T10:12:15;10.43;;;2.97;;
59786;SDS011;45672;51.612;5.536;2023-08-01T10:14:43;9.82;;;2.88;;
59786;SDS011;45672;51.612;5.536;2023-08-01T10:17:08;5.25;;;2.20;;
59786;SDS011;45672;51.612;5.536;2023-08-01T10:19:36;7.75;;;1.98;;
59786;SDS011;45672;51.612;5.536;2023-08-01T10:22:02;6.07;;;2.42;;
59786;SDS011;45672;51.612;5.536;2023-08-01T10:24:29;5.78;;;2.00;;
59786;SDS011;45672;51.612;5.536;2023-08-01T10:26:55;5.28;;;2.30;;
59786;SDS011;45672;51.612;5.536;2023-08-01T10:29:20;6.57;;;2.22;;
59786;SDS011;45672;51.612;5.536;2023-08-01T10:31:52;5.90;;;2.40;;
59786;SDS011;45672;51.612;5.536;2023-08-01T10:34:18;5.40;;;2.10;;
59786;SDS011;45672;51.612;5.536;2023-08-01T10:36:53;4.20;;;2.00;;
59786;SDS011;45672;51.612;5.536;2023-08-01T10:39:20;6.28;;;2.33;;
59786;SDS011;45672;51.612;5.536;2023-08-01T10:41:47;6.72;;;2.63;;
59786;SDS011;45672;51.612;5.536;2023-08-01T10:44:23;10.00;;;2.67;;
59786;SDS011;45672;51.612;5.536;2023-08-01T10:46:49;4.97;;;2.15;;
59786;SDS011;45672;51.612;5.536;2023-08-01T10:49:43;6.13;;;2.63;;
59786;SDS011;45672;51.612;5.536;2023-08-01T10:52:21;7.70;;;2.30;;
59786;SDS011;45672;51.612;5.536;2023-08-01T10:54:57;5.60;;;2.35;;
59786;SDS011;45672;51.612;5.536;2023-08-01T10:57:30;5.18;;;2.30;;
59786;SDS011;45672;51.612;5.536;2023-08-01T10:59:58;6.93;;;2.10;;
59786;SDS011;45672;51.612;5.536;2023-08-01T11:02:25;4.72;;;2.17;;
59786;SDS011;45672;51.612;5.536;2023-08-01T11:04:58;5.63;;;2.35;;
59786;SDS011;45672;51.612;5.536;2023-08-01T11:07:24;6.25;;;2.30;;
59786;SDS011;45672;51.612;5.536;2023-08-01T11:09:49;5.10;;;2.60;;
59786;SDS011;45672;51.612;5.536;2023-08-01T11:12:27;5.70;;;1.95;;
59786;SDS011;45672;51.612;5.536;2023-08-01T11:14:52;4.78;;;2.15;;
59786;SDS011;45672;51.612;5.536;2023-08-01T11:17:24;7.15;;;2.35;;
59786;SDS011;45672;51.612;5.536;2023-08-01T11:19:50;8.63;;;2.50;;
59786;SDS011;45672;51.612;5.536;2023-08-01T11:22:15;9.23;;;2.33;;
59786;SDS011;45672;51.612;5.536;2023-08-01T11:24:40;7.03;;;2.53;;
59786;SDS011;45672;51.612;5.536;2023-08-01T11:27:15;7.35;;;2.25;;
59786;SDS011;45672;51.612;5.536;2023-08-01T11:29:40;5.88;;;1.95;;
59786;SDS011;45672;51.612;5.536;2023-08-01T11:32:06;6.63;;;2.05;;
59786;SDS011;45672;51.612;5.536;2023-08-01T11:34:38;8.13;;;2.40;;
59786;SDS011;45672;51.612;5.536;2023-08-01T11:37:06;9.95;;;2.80;;
59786;SDS011;45672;51.612;5.536;2023-08-01T11:39:32;9.35;;;2.10;;
59786;SDS011;45672;51.612;5.536;2023-08-01T11:41:57;6.10;;;2.30;;
59786;SDS011;45672;51.612;5.536;2023-08-01T11:44:25;7.03;;;2.28;;
59786;SDS011;45672;51.612;5.536;2023-08-01T11:46:50;6.57;;;2.40;;
59786;SDS011;45672;51.612;5.536;2023-08-01T11:49:16;9.00;;;2.60;;
59786;SDS011;45672;51.612;5.536;2023-08-01T11:51:44;6.22;;;2.40;;
59786;SDS011;45672;51.612;5.536;2023-08-01T11:54:11;5.47;;;2.42;;
59786;SDS011;45672;51.612;5.536;2023-08-01T11:56:38;5.25;;;1.92;;
59786;SDS011;45672;51.612;5.536;2023-08-01T11:59:07;7.93;;;2.30;;
59786;SDS011;45672;51.612;5.536;2023-08-01T12:01:40;4.75;;;2.10;;
59786;SDS011;45672;51.612;5.536;2023-08-01T12:04:10;6.38;;;1.88;;
59786;SDS011;45672;51.612;5.536;2023-08-01T12:06:36;8.30;;;2.10;;
59786;SDS011;45672;51.612;5.536;2023-08-01T12:09:08;3.88;;;1.80;;
59786;SDS011;45672;51.612;5.536;2023-08-01T12:11:38;8.45;;;2.17;;
59786;SDS011;45672;51.612;5.536;2023-08-01T12:14:09;4.75;;;1.63;;
59786;SDS011;45672;51.612;5.536;2023-08-01T12:16:43;4.03;;;2.00;;
59786;SDS011;45672;51.612;5.536;2023-08-01T12:19:11;6.95;;;2.10;;
59786;SDS011;45672;51.612;5.536;2023-08-01T12:21:42;6.10;;;2.05;;
59786;SDS011;45672;51.612;5.536;2023-08-01T12:24:07;3.97;;;1.75;;
59786;SDS011;45672;51.612;5.536;2023-08-01T12:26:32;7.47;;;2.03;;
59786;SDS011;45672;51.612;5.536;2023-08-01T12:28:58;5.18;;;1.70;;
59786;SDS011;45672;51.612;5.536;2023-08-01T12:31:23;7.90;;;2.03;;
59786;SDS011;45672;51.612;5.536;2023-08-01T12:33:48;6.28;;;1.70;;
59786;SDS011;45672;51.612;5.536;2023-08-01T12:36:15;7.40;;;1.65;;
59786;SDS011;45672;51.612;5.536;2023-08-01T12:38:41;6.03;;;1.75;;
59786;SDS011;45672;51.612;5.536;2023-08-01T12:41:07;5.63;;;1.75;;
59786;SDS011;45672;51.612;5.536;2023-08-01T12:43:32;4.57;;;1.90;;
59786;SDS011;45672;51.612;5.536;2023-08-01T12:45:58;6.03;;;2.40;;
59786;SDS011;45672;51.612;5.536;2023-08-01T12:48:23;5.78;;;2.03;;
59786;SDS011;45672;51.612;5.536;2023-08-01T12:50:52;4.68;;;1.95;;
59786;SDS011;45672;51.612;5.536;2023-08-01T12:53:18;7.93;;;2.35;;
59786;SDS011;45672;51.612;5.536;2023-08-01T12:55:47;5.25;;;1.92;;
59786;SDS011;45672;51.612;5.536;2023-08-01T12:58:14;3.72;;;1.65;;
59786;SDS011;45672;51.612;5.536;2023-08-01T13:00:40;7.45;;;2.58;;
59786;SDS011;45672;51.612;5.536;2023-08-01T13:03:06;7.43;;;2.03;;
59786;SDS011;45672;51.612;5.536;2023-08-01T13:05:34;6.10;;;2.00;;
59786;SDS011;45672;51.612;5.536;2023-08-01T13:08:00;3.17;;;1.85;;
59786;SDS011;45672;51.612;5.536;2023-08-01T13:10:29;7.35;;;1.92;;
59786;SDS011;45672;51.612;5.536;2023-08-01T13:12:55;4.30;;;1.88;;
59786;SDS011;45672;51.612;5.536;2023-08-01T13:15:20;5.75;;;1.98;;
59786;SDS011;45672;51.612;5.536;2023-08-01T13:17:45;5.68;;;2.10;;
59786;SDS011;45672;51.612;5.536;2023-08-01T13:20:11;5.80;;;2.38;;
59786;SDS011;45672;51.612;5.536;2023-08-01T13:22:36;9.57;;;2.40;;
59786;SDS011;45672;51.612;5.536;2023-08-01T13:25:02;9.82;;;2.33;;
59786;SDS011;45672;51.612;5.536;2023-08-01T13:27:28;9.15;;;2.45;;
59786;SDS011;45672;51.612;5.536;2023-08-01T13:29:54;5.97;;;2.08;;
59786;SDS011;45672;51.612;5.536;2023-08-01T13:32:19;9.40;;;2.23;;
59786;SDS011;45672;51.612;5.536;2023-08-01T13:34:44;10.88;;;2.20;;
59786;SDS011;45672;51.612;5.536;2023-08-01T13:37:11;5.00;;;2.10;;
59786;SDS011;45672;51.612;5.536;2023-08-01T13:39:36;7.47;;;2.17;;
59786;SDS011;45672;51.612;5.536;2023-08-01T13:42:01;9.65;;;2.33;;
59786;SDS011;45672;51.612;5.536;2023-08-01T13:44:27;6.40;;;2.30;;
59786;SDS011;45672;51.612;5.536;2023-08-01T13:46:52;9.65;;;2.00;;
59786;SDS011;45672;51.612;5.536;2023-08-01T13:49:18;6.68;;;2.08;;
59786;SDS011;45672;51.612;5.536;2023-08-01T13:51:43;6.90;;;2.30;;
59786;SDS011;45672;51.612;5.536;2023-08-01T13:54:09;5.82;;;2.60;;
59786;SDS011;45672;51.612;5.536;2023-08-01T13:56:37;5.57;;;1.92;;
59786;SDS011;45672;51.612;5.536;2023-08-01T13:59:03;7.10;;;2.20;;
59786;SDS011;45672;51.612;5.536;2023-08-01T14:01:28;5.15;;;1.73;;
59786;SDS011;45672;51.612;5.536;2023-08-01T14:03:54;4.63;;;1.73;;
59786;SDS011;45672;51.612;5.536;2023-08-01T14:06:19;7.45;;;2.28;;
59786;SDS011;45672;51.612;5.536;2023-08-01T14:08:44;5.55;;;1.67;;
59786;SDS011;45672;51.612;5.536;2023-08-01T14:11:10;4.72;;;1.77;;
59786;SDS011;45672;51.612;5.536;2023-08-01T14:13:35;3.67;;;1.73;;
59786;SDS011;45672;51.612;5.536;2023-08-01T14:16:01;7.75;;;2.30;;
59786;SDS011;45672;51.612;5.536;2023-08-01T14:18:27;6.93;;;2.50;;
59786;SDS011;45672;51.612;5.536;2023-08-01T14:20:53;5.57;;;2.10;;
59786;SDS011;45672;51.612;5.536;2023-08-01T14:23:18;5.55;;;2.20;;
59786;SDS011;45672;51.612;5.536;2023-08-01T14:25:44;6.60;;;2.00;;
59786;SDS011;45672;51.612;5.536;2023-08-01T14:28:09;4.68;;;2.03;;
59786;SDS011;45672;51.612;5.536;2023-08-01T14:30:36;4.53;;;1.67;;
59786;SDS011;45672;51.612;5.536;2023-08-01T14:33:06;4.65;;;1.58;;